Estación Meteorológica Peña el Pijo (Robertgarden) [ 12/16/19 00:45:51 CET ]

Fecha Hora Presion(HPa) Temp (°C) Humedad % Rocio (°C) Viento ( m/s) Direccion Lluvia 1Hora(mm) Lluvia 24H(mm) LLuvia Total(mm)
2019-Sep-19 01:01:47 1010.800 13.9 89 12.1       3.10 485.59
2019-Sep-19 02:01:52 1010.700 13.4 89 11.6       3.10 485.59
2019-Sep-19 03:04:19 1010.600 12.9 89 11.1       3.10 485.59
2019-Sep-19 04:01:42 1010.400 12.2 90 10.6       3.10 485.59
2019-Sep-19 05:01:46 1010.200 12.2 90 10.6       3.10 485.59
2019-Sep-19 06:01:49 1010.100 11.8 91 10.4       3.10 485.59
2019-Sep-19 07:01:44 1010.200 11.6 91 10.2       3.10 485.59
2019-Sep-19 08:01:52 1010.400 11.3 91 9.9       3.10 485.59
2019-Sep-19 09:01:51 1010.500 12.6 92 11.3       3.10 485.59
2019-Sep-19 10:01:53 1010.700 16.6 93 15.5       3.10 485.59
2019-Sep-19 11:01:47 1010.600 19.9 85 17.3       3.10 485.59
2019-Sep-19 12:01:46 1010.500 23.8 64 16.6       3.10 485.59
2019-Sep-19 13:01:54 1010.100 27.2 51 16.2       3.10 485.59
2019-Sep-19 14:01:48 1009.600 28.2 40 13.4     0.51 3.62 486.11
2019-Sep-19 15:01:35 1009.300 29.2 38 13.4       3.62 486.11
2019-Sep-19 16:01:46 1009.100 27.6 46 14.9       3.62 486.11
2019-Sep-19 17:01:44 1009.000 26.3 49 14.7 3.2 WSW   3.62 486.11
2019-Sep-19 18:01:43 1008.900 25.6 51 14.7       0.51 486.11
2019-Sep-19 19:01:40 1009.100 23.7 55 14.1       0.51 486.11
2019-Sep-19 20:01:50 1009.700 21.4 63 14.1       0.51 486.11
2019-Sep-19 21:01:51 1010.100 19.5 72 14.3       0.51 486.11
2019-Sep-19 22:01:36 1010.600 17.2 78 13.3       0.51 486.11
2019-Sep-19 23:01:39 1011.200 15.9 82 12.9       0.51 486.11

Temperatura Máxima:29°    Temperatura Mínima:11°
Presión Máxima:1011.200 Hpa    Presión Mínima:1008.900 Hpa


Volver